createdAt,value
2022-11-18T00:02:13.268Z,0.17
2022-11-18T00:04:42.807Z,0.12
2022-11-18T00:07:12.407Z,0.09
2022-11-18T00:09:44.466Z,0.14
2022-11-18T00:12:26.478Z,0.11
2022-11-18T00:14:56.019Z,0.07
2022-11-18T00:17:25.445Z,0.09
2022-11-18T00:19:55.009Z,0.09
2022-11-18T00:22:29.762Z,0.06
2022-11-18T00:25:02.046Z,0.11
2022-11-18T00:27:32.541Z,0.09
2022-11-18T00:30:02.010Z,0.11
2022-11-18T00:32:32.503Z,0.12
2022-11-18T00:35:02.224Z,0.13
2022-11-18T00:37:31.740Z,0.13
2022-11-18T00:40:03.859Z,0.04
2022-11-18T00:42:45.800Z,0.10
2022-11-18T00:45:16.456Z,0.07
2022-11-18T00:47:45.845Z,0.07
2022-11-18T00:50:15.776Z,0.01
2022-11-18T00:52:45.365Z,-0.01
2022-11-18T00:55:17.856Z,-0.01
2022-11-18T00:57:47.309Z,-0.01
2022-11-18T01:00:17.851Z,-0.08
2022-11-18T01:02:47.366Z,-0.10
2022-11-18T01:05:16.834Z,-0.09
2022-11-18T01:07:46.265Z,-0.12
2022-11-18T01:10:18.973Z,-0.20
2022-11-18T01:13:00.994Z,-0.23
2022-11-18T01:15:30.422Z,-0.23
2022-11-18T01:17:59.827Z,-0.27
2022-11-18T01:20:29.270Z,-0.27
2022-11-18T01:22:58.710Z,-0.24
2022-11-18T01:25:30.826Z,-0.24
2022-11-18T01:28:00.227Z,-0.28
2022-11-18T01:30:29.694Z,-0.28
2022-11-18T01:32:59.142Z,-0.29
2022-11-18T01:35:28.586Z,-0.34
2022-11-18T01:37:58.078Z,-0.33
2022-11-18T01:40:30.473Z,-0.31
2022-11-18T01:43:00.039Z,-0.33
2022-11-18T01:45:38.257Z,-0.35
2022-11-18T01:48:09.782Z,-0.37
2022-11-18T01:50:42.029Z,-0.35
2022-11-18T01:53:14.364Z,-0.30
2022-11-18T01:55:49.007Z,-0.30
2022-11-18T01:58:21.783Z,-0.35
2022-11-18T02:00:51.271Z,-0.34
2022-11-18T02:03:20.909Z,-0.32
2022-11-18T02:05:51.288Z,-0.30
2022-11-18T02:08:22.011Z,-0.32
2022-11-18T02:10:53.997Z,-0.34
2022-11-18T02:13:24.041Z,-0.35
2022-11-18T02:15:58.570Z,-0.38
2022-11-18T02:18:34.211Z,-0.42
2022-11-18T02:21:14.840Z,-0.41
2022-11-18T02:24:04.850Z,-0.22
2022-11-18T02:27:11.761Z,0.01
2022-11-18T02:29:45.819Z,0.08
2022-11-18T02:32:18.379Z,0.13
2022-11-18T02:34:52.062Z,0.03
2022-11-18T02:37:25.849Z,0.05
2022-11-18T02:39:59.914Z,0.03
2022-11-18T02:42:30.337Z,0.04
2022-11-18T02:45:07.249Z,0.15
2022-11-18T02:47:38.126Z,-0.01
2022-11-18T02:50:10.358Z,-0.04
2022-11-18T02:52:42.078Z,-0.02
2022-11-18T02:55:14.093Z,0.03
2022-11-18T02:57:44.418Z,0.06
2022-11-18T03:00:17.989Z,-0.01
2022-11-18T03:02:48.541Z,-0.09
2022-11-18T03:05:22.114Z,-0.17
2022-11-18T03:07:55.390Z,-0.24
2022-11-18T03:10:26.894Z,-0.31
2022-11-18T03:13:02.942Z,-0.37
2022-11-18T03:15:38.737Z,-0.42
2022-11-18T03:18:21.168Z,-0.42
2022-11-18T03:20:52.886Z,-0.45
2022-11-18T03:23:27.394Z,0.78
2022-11-18T03:25:58.522Z,1.92
2022-11-18T03:28:32.548Z,1.72
2022-11-18T03:31:08.502Z,1.80
2022-11-18T03:33:39.261Z,1.77
2022-11-18T03:36:10.729Z,2.11
2022-11-18T03:38:43.536Z,1.89
2022-11-18T03:41:14.202Z,1.88
2022-11-18T03:43:47.727Z,2.12
2022-11-18T03:46:23.360Z,2.36
2022-11-18T03:48:54.869Z,2.12
2022-11-18T03:51:26.372Z,1.43
2022-11-18T03:53:59.276Z,0.86
2022-11-18T03:56:32.774Z,0.84
2022-11-18T03:59:08.294Z,0.87
2022-11-18T04:01:45.916Z,0.89
2022-11-18T04:04:16.144Z,1.08
2022-11-18T04:06:49.057Z,0.56
2022-11-18T04:09:23.088Z,0.32
2022-11-18T04:12:08.219Z,0.22
2022-11-18T04:14:39.635Z,0.13
2022-11-18T04:17:14.191Z,0.07
2022-11-18T04:19:44.007Z,-0.04
2022-11-18T04:22:14.078Z,-0.07
2022-11-18T04:24:43.491Z,-0.20
2022-11-18T04:27:12.972Z,-0.26
2022-11-18T04:29:42.529Z,-0.31
2022-11-18T04:32:14.535Z,-0.37
2022-11-18T04:34:43.938Z,-0.40
2022-11-18T04:37:13.393Z,-0.35
2022-11-18T04:39:42.856Z,-0.38
2022-11-18T04:42:14.624Z,-0.41
2022-11-18T04:44:44.023Z,-0.36
2022-11-18T04:47:16.147Z,-0.44
2022-11-18T04:49:45.724Z,-0.47
2022-11-18T04:52:15.186Z,-0.50
2022-11-18T04:54:44.758Z,-0.51
2022-11-18T04:57:14.202Z,-0.54
2022-11-18T04:59:43.835Z,-0.56
2022-11-18T05:02:15.793Z,-0.54
2022-11-18T05:04:45.258Z,-0.61
2022-11-18T05:07:17.131Z,-0.54
2022-11-18T05:09:46.631Z,-0.55
2022-11-18T05:12:29.578Z,-0.58
2022-11-18T05:14:59.096Z,-0.59
2022-11-18T05:17:31.323Z,-0.59
2022-11-18T05:20:00.771Z,-0.59
2022-11-18T05:22:30.562Z,-0.66
2022-11-18T05:25:00.101Z,-0.69
2022-11-18T05:27:29.541Z,-0.69
2022-11-18T05:29:59.158Z,-0.67
2022-11-18T05:32:31.209Z,-0.69
2022-11-18T05:35:00.646Z,-0.69
2022-11-18T05:37:30.119Z,-0.69
2022-11-18T05:39:59.558Z,-0.74
2022-11-18T05:42:41.551Z,-0.73
2022-11-18T05:45:12.041Z,-0.75
2022-11-18T05:47:56.394Z,-0.73
2022-11-18T05:50:25.881Z,-0.71
2022-11-18T05:52:55.370Z,-0.73
2022-11-18T05:55:27.466Z,-0.70
2022-11-18T05:57:56.846Z,-0.70
2022-11-18T06:00:26.679Z,-0.75
2022-11-18T06:02:59.493Z,-0.78
2022-11-18T06:05:29.473Z,-0.76
2022-11-18T06:07:59.739Z,-0.68
2022-11-18T06:10:31.800Z,-0.72
2022-11-18T06:13:04.896Z,-0.79
2022-11-18T06:15:36.435Z,-0.78
2022-11-18T06:18:11.189Z,-0.82
2022-11-18T06:20:42.292Z,-0.84
2022-11-18T06:23:11.788Z,-0.79
2022-11-18T06:25:41.608Z,-0.79
2022-11-18T06:28:13.750Z,-0.79
2022-11-18T06:30:43.246Z,-0.83
2022-11-18T06:33:15.462Z,-0.85
2022-11-18T06:35:45.141Z,-0.83
2022-11-18T06:38:14.589Z,-0.88
2022-11-18T06:40:44.809Z,-0.85
2022-11-18T06:43:30.433Z,-0.88
2022-11-18T06:46:14.068Z,-0.89
2022-11-18T06:48:46.164Z,-0.91
2022-11-18T06:51:16.025Z,-0.88
2022-11-18T06:53:45.722Z,-0.99
2022-11-18T06:56:16.781Z,-0.98
2022-11-18T06:58:46.298Z,-0.94
2022-11-18T07:01:17.153Z,-0.90
2022-11-18T07:03:49.514Z,-0.91
2022-11-18T07:06:20.713Z,-0.92
2022-11-18T07:08:50.566Z,-0.88
2022-11-18T07:11:21.583Z,-0.85
2022-11-18T07:13:51.051Z,-0.83
2022-11-18T07:16:22.002Z,-0.81
2022-11-18T07:18:55.178Z,-0.85
2022-11-18T07:21:26.266Z,-0.85
2022-11-18T07:23:55.873Z,-0.85
2022-11-18T07:26:25.817Z,0.72
2022-11-18T07:28:56.608Z,1.00
2022-11-18T07:31:26.028Z,1.79
2022-11-18T07:33:58.331Z,1.16
2022-11-18T07:36:35.168Z,0.38
2022-11-18T07:39:06.050Z,0.09
2022-11-18T07:41:35.617Z,0.10
2022-11-18T07:44:07.451Z,-0.02
2022-11-18T07:46:38.008Z,0.15
2022-11-18T07:49:11.564Z,0.15
2022-11-18T07:51:43.133Z,0.06
2022-11-18T07:54:14.137Z,-0.19
2022-11-18T07:56:43.573Z,-0.22
2022-11-18T07:59:13.064Z,-0.11
2022-11-18T08:01:42.516Z,-0.11
2022-11-18T08:04:15.410Z,-0.06
2022-11-18T08:06:44.887Z,-0.02
2022-11-18T08:09:15.172Z,0.58
2022-11-18T08:11:47.492Z,1.80
2022-11-18T08:14:16.913Z,1.78
2022-11-18T08:16:46.436Z,1.77
2022-11-18T08:19:18.819Z,2.38
2022-11-18T08:21:48.386Z,2.34
2022-11-18T08:24:17.785Z,2.11
2022-11-18T08:26:47.360Z,2.74
2022-11-18T08:29:20.343Z,2.48
2022-11-18T08:31:54.765Z,2.51
2022-11-18T08:34:26.724Z,2.46
2022-11-18T08:36:56.163Z,2.45
2022-11-18T08:39:26.389Z,2.31
2022-11-18T08:41:55.825Z,2.54
2022-11-18T08:44:25.233Z,1.93
2022-11-18T08:46:54.605Z,2.42
2022-11-18T08:49:32.216Z,1.89
2022-11-18T08:52:02.031Z,1.28
2022-11-18T08:54:31.689Z,1.85
2022-11-18T08:57:01.060Z,2.17
2022-11-18T08:59:30.500Z,1.89
2022-11-18T09:02:00.003Z,1.81
2022-11-18T09:04:32.266Z,2.04
2022-11-18T09:07:03.006Z,1.27
2022-11-18T09:09:32.689Z,0.72
2022-11-18T09:12:02.193Z,0.76
2022-11-18T09:17:21.634Z,0.52
2022-11-18T09:19:53.733Z,0.25
2022-11-18T09:22:23.149Z,0.13
2022-11-18T09:24:55.410Z,0.31
2022-11-18T09:27:25.078Z,0.59
2022-11-18T09:29:54.479Z,0.52
2022-11-18T09:32:24.036Z,0.35
2022-11-18T09:34:56.029Z,0.49
2022-11-18T09:37:25.509Z,0.51
2022-11-18T09:39:56.017Z,0.51
2022-11-18T09:42:37.300Z,0.65
2022-11-18T09:45:20.725Z,0.60
2022-11-18T09:47:53.483Z,0.59
2022-11-18T09:53:21.147Z,0.73
2022-11-18T09:55:51.975Z,0.74
2022-11-18T09:58:24.809Z,0.78
2022-11-18T10:00:54.907Z,0.82
2022-11-18T10:03:30.497Z,0.98
2022-11-18T10:06:07.298Z,1.02
2022-11-18T10:08:45.406Z,1.24
2022-11-18T10:11:18.148Z,1.12
2022-11-18T10:13:57.749Z,1.25
2022-11-18T10:16:39.407Z,1.00
2022-11-18T10:19:15.962Z,1.28
2022-11-18T10:21:54.812Z,1.26
2022-11-18T10:24:26.406Z,1.17
2022-11-18T10:26:58.883Z,1.31
2022-11-18T10:29:28.780Z,1.48
2022-11-18T10:32:08.780Z,1.24
2022-11-18T10:34:49.978Z,1.12
2022-11-18T10:38:00.290Z,1.39
2022-11-18T10:40:27.545Z,1.46
2022-11-18T10:42:57.086Z,1.41
2022-11-18T10:45:32.091Z,1.93
2022-11-18T10:48:10.125Z,1.77
2022-11-18T10:50:41.478Z,2.37
2022-11-18T10:53:32.264Z,2.22
2022-11-18T10:56:03.296Z,1.91
2022-11-18T10:58:34.319Z,1.51
2022-11-18T11:01:22.380Z,1.38
2022-11-18T11:03:59.954Z,1.11
2022-11-18T11:06:34.608Z,0.73
2022-11-18T11:09:10.141Z,0.71
2022-11-18T11:11:43.576Z,0.71
2022-11-18T11:14:26.364Z,0.75
2022-11-18T11:17:00.930Z,0.83
2022-11-18T11:19:38.575Z,0.80
2022-11-18T11:22:11.972Z,0.78
2022-11-18T11:24:44.172Z,0.82
2022-11-18T11:30:21.920Z,0.93
2022-11-18T11:33:12.475Z,0.78
2022-11-18T11:35:54.281Z,0.93
2022-11-18T11:38:33.897Z,0.99
2022-11-18T11:41:09.804Z,0.94
2022-11-18T11:43:49.150Z,0.98
2022-11-18T11:46:28.941Z,0.91
2022-11-18T11:49:02.729Z,0.88
2022-11-18T11:51:36.860Z,0.94
2022-11-18T11:54:36.393Z,0.98
2022-11-18T11:57:20.327Z,1.02
2022-11-18T11:59:54.575Z,1.12
2022-11-18T12:02:36.420Z,1.15
2022-11-18T12:05:11.746Z,1.15
2022-11-18T12:07:44.440Z,1.14
2022-11-18T12:10:33.403Z,1.14
2022-11-18T12:13:20.403Z,1.02
2022-11-18T12:15:58.670Z,1.02
2022-11-18T12:18:33.136Z,0.96
2022-11-18T12:21:02.961Z,1.00
2022-11-18T12:23:33.191Z,1.03
2022-11-18T12:26:08.348Z,1.00
2022-11-18T12:28:42.812Z,0.99
2022-11-18T12:31:34.702Z,0.96
2022-11-18T12:34:22.360Z,0.91
2022-11-18T12:36:51.925Z,0.94
2022-11-18T12:39:49.931Z,1.05
2022-11-18T12:42:56.474Z,1.09
2022-11-18T12:45:53.083Z,1.15
2022-11-18T12:48:34.839Z,1.20
2022-11-18T12:51:05.490Z,1.16
2022-11-18T12:53:38.771Z,1.21
2022-11-18T12:56:26.380Z,1.13
2022-11-18T12:58:57.579Z,1.07
2022-11-18T13:01:32.103Z,1.12
2022-11-18T13:04:10.485Z,1.03
2022-11-18T13:06:42.043Z,1.02
2022-11-18T13:09:18.551Z,0.96
2022-11-18T13:11:50.753Z,0.94
2022-11-18T13:14:35.873Z,1.00
2022-11-18T13:17:38.684Z,0.94
2022-11-18T13:20:08.896Z,1.04
2022-11-18T13:22:50.907Z,1.02
2022-11-18T13:25:27.465Z,1.06
2022-11-18T13:28:02.719Z,1.14
2022-11-18T13:30:33.259Z,1.39
2022-11-18T13:33:05.382Z,2.11
2022-11-18T13:35:34.871Z,2.70
2022-11-18T13:38:08.293Z,3.17
2022-11-18T13:41:04.560Z,3.33
2022-11-18T13:43:34.624Z,3.77
2022-11-18T13:46:07.237Z,3.50
2022-11-18T13:48:40.616Z,3.13
2022-11-18T13:51:10.218Z,2.78
2022-11-18T13:53:41.165Z,2.50
2022-11-18T13:56:19.044Z,2.52
2022-11-18T13:59:16.317Z,2.58
2022-11-18T14:01:47.187Z,2.56
2022-11-18T14:04:24.271Z,2.53
2022-11-18T14:06:53.943Z,2.46
2022-11-18T14:09:27.497Z,2.44
2022-11-18T14:12:01.995Z,2.47
2022-11-18T14:14:33.451Z,2.36
2022-11-18T14:17:20.692Z,2.23
2022-11-18T14:19:54.401Z,2.10
2022-11-18T14:22:25.562Z,1.98
2022-11-18T14:24:59.578Z,1.77
2022-11-18T14:27:38.197Z,1.79
2022-11-18T14:30:38.429Z,1.79
2022-11-18T14:33:22.760Z,1.69
2022-11-18T14:35:57.465Z,1.61
2022-11-18T14:38:51.997Z,1.61
2022-11-18T14:41:44.842Z,1.57
2022-11-18T14:44:15.179Z,1.59
2022-11-18T14:46:46.614Z,3.04
2022-11-18T14:49:22.321Z,3.17
2022-11-18T14:51:55.285Z,2.61
2022-11-18T14:54:28.152Z,2.31
2022-11-18T14:57:00.940Z,2.11
2022-11-18T14:59:30.645Z,1.88
2022-11-18T15:02:00.580Z,1.70
2022-11-18T15:04:30.631Z,1.52
2022-11-18T15:07:02.672Z,1.40
2022-11-18T15:09:32.098Z,1.45
2022-11-18T15:12:03.653Z,1.50
2022-11-18T15:14:33.293Z,1.68
2022-11-18T15:17:02.749Z,1.84
2022-11-18T15:19:35.288Z,1.86
2022-11-18T15:22:07.606Z,1.93
2022-11-18T15:24:37.049Z,1.88
2022-11-18T15:27:06.605Z,1.89
2022-11-18T15:29:36.055Z,2.01
2022-11-18T15:32:06.634Z,1.82
2022-11-18T15:34:36.070Z,2.09
2022-11-18T15:37:08.172Z,2.44
2022-11-18T15:39:37.646Z,2.31
2022-11-18T15:42:07.249Z,2.47
2022-11-18T15:44:36.841Z,2.43
2022-11-18T15:47:06.369Z,2.65
2022-11-18T15:49:35.911Z,2.74
2022-11-18T15:52:08.667Z,2.72
2022-11-18T15:54:38.431Z,2.04
2022-11-18T15:57:08.453Z,1.71
2022-11-18T15:59:37.940Z,1.48
2022-11-18T16:02:07.393Z,1.42
2022-11-18T16:04:36.956Z,1.43
2022-11-18T16:07:09.109Z,1.33
2022-11-18T16:09:51.103Z,1.31
2022-11-18T16:12:33.112Z,1.16
2022-11-18T16:15:15.099Z,1.04
2022-11-18T16:17:44.604Z,0.98
2022-11-18T16:20:14.127Z,0.74
2022-11-18T16:22:46.366Z,0.71
2022-11-18T16:25:16.990Z,0.64
2022-11-18T16:27:46.564Z,0.57
2022-11-18T16:30:29.022Z,0.54
2022-11-18T16:32:58.465Z,0.58
2022-11-18T16:35:28.011Z,0.55
2022-11-18T16:38:00.152Z,0.51
2022-11-18T16:40:29.693Z,0.47
2022-11-18T16:42:59.428Z,0.37
2022-11-18T16:45:29.551Z,0.36
2022-11-18T16:47:59.034Z,0.37
2022-11-18T16:50:28.574Z,0.37
2022-11-18T16:53:00.592Z,0.35
2022-11-18T16:55:30.113Z,0.34
2022-11-18T16:57:59.543Z,0.31
2022-11-18T17:00:59.829Z,0.20
2022-11-18T17:03:18.612Z,0.13
2022-11-18T17:05:48.118Z,0.09
2022-11-18T17:08:20.211Z,0.02
2022-11-18T17:10:49.617Z,0.06
2022-11-18T17:13:19.108Z,0.07
2022-11-18T17:15:48.553Z,0.17
2022-11-18T17:18:17.962Z,0.18
2022-11-18T17:20:47.388Z,0.74
2022-11-18T17:23:16.932Z,1.75
2022-11-18T17:25:49.011Z,1.84
2022-11-18T17:28:18.429Z,2.02
2022-11-18T17:30:50.092Z,2.25
2022-11-18T17:33:19.876Z,2.39
2022-11-18T17:35:49.704Z,1.94
2022-11-18T17:38:20.123Z,1.38
2022-11-18T17:40:56.022Z,0.92
2022-11-18T17:43:25.770Z,0.72
2022-11-18T17:45:56.503Z,0.62
2022-11-18T17:48:26.896Z,0.60
2022-11-18T17:50:56.765Z,0.47
2022-11-18T17:53:26.223Z,0.45
2022-11-18T17:56:03.493Z,0.32
2022-11-18T17:58:33.439Z,0.50
2022-11-18T18:01:09.554Z,0.38
2022-11-18T18:03:39.371Z,0.41
2022-11-18T18:06:10.296Z,0.30
2022-11-18T18:08:40.079Z,0.22
2022-11-18T18:11:14.026Z,0.22
2022-11-18T18:13:56.756Z,0.05
2022-11-18T18:16:26.554Z,-0.14
2022-11-18T18:18:56.511Z,-0.20
2022-11-18T18:21:26.027Z,-0.33
2022-11-18T18:23:56.019Z,-0.41
2022-11-18T18:26:31.459Z,-0.43
2022-11-18T18:29:01.806Z,-0.50
2022-11-18T18:31:31.866Z,-0.54
2022-11-18T18:34:01.327Z,-0.63
2022-11-18T18:36:30.845Z,-0.64
2022-11-18T18:39:02.382Z,-0.63
2022-11-18T18:41:34.594Z,-0.67
2022-11-18T18:44:04.391Z,-0.73
2022-11-18T18:46:32.371Z,-0.81
2022-11-18T18:49:06.932Z,-0.88
2022-11-18T18:51:39.600Z,-0.99
2022-11-18T18:54:10.219Z,-0.94
2022-11-18T18:56:42.703Z,-1.00
2022-11-18T18:59:12.790Z,-1.02
2022-11-18T19:01:42.811Z,-0.99
2022-11-18T19:04:14.125Z,-1.02
2022-11-18T19:06:59.519Z,-1.10
2022-11-18T19:09:29.642Z,-0.92
2022-11-18T19:12:14.247Z,-0.88
2022-11-18T19:14:44.056Z,-0.99
2022-11-18T19:17:14.037Z,-1.06
2022-11-18T19:19:56.917Z,-1.09
2022-11-18T19:22:26.391Z,-1.11
2022-11-18T19:24:56.430Z,-1.05
2022-11-18T19:27:28.919Z,-1.01
2022-11-18T19:29:58.503Z,-0.97
2022-11-18T19:32:28.947Z,-0.90
2022-11-18T19:34:58.496Z,-0.84
2022-11-18T19:37:27.959Z,-0.84
2022-11-18T19:39:58.839Z,-0.83
2022-11-18T19:42:31.013Z,-0.86
2022-11-18T19:45:00.558Z,-0.92
2022-11-18T19:47:30.009Z,-0.85
2022-11-18T19:49:59.577Z,-0.84
2022-11-18T19:52:29.022Z,-1.00
2022-11-18T19:54:58.506Z,-1.03
2022-11-18T19:57:28.191Z,-1.11
2022-11-18T20:00:00.217Z,-1.08
2022-11-18T20:02:29.616Z,-1.11
2022-11-18T20:05:11.484Z,-1.13
2022-11-18T20:07:41.022Z,-1.24
2022-11-18T20:10:11.879Z,-1.29
2022-11-18T20:12:41.282Z,-1.37
2022-11-18T20:15:13.874Z,-1.43
2022-11-18T20:17:43.403Z,-1.52
2022-11-18T20:20:13.718Z,-1.52
2022-11-18T20:22:43.163Z,-1.61
2022-11-18T20:25:14.290Z,-1.63
2022-11-18T20:27:43.785Z,-1.58
2022-11-18T20:30:17.579Z,-1.58
2022-11-18T20:32:47.360Z,-1.67
2022-11-18T20:35:17.387Z,-1.70
2022-11-18T20:37:46.794Z,-1.65
2022-11-18T20:40:16.238Z,-1.64
2022-11-18T20:42:58.083Z,-1.58
2022-11-18T20:45:30.143Z,-1.56
2022-11-18T20:47:59.541Z,-1.56
2022-11-18T20:50:28.991Z,-1.52
2022-11-18T20:52:58.463Z,-0.69
2022-11-18T20:55:27.931Z,0.04
2022-11-18T20:57:57.304Z,0.35
2022-11-18T21:00:26.786Z,1.03
2022-11-18T21:02:58.901Z,0.88
2022-11-18T21:05:30.626Z,0.83
2022-11-18T21:08:00.079Z,1.50
2022-11-18T21:10:29.460Z,1.94
2022-11-18T21:13:11.335Z,1.12
2022-11-18T21:15:40.757Z,0.35
2022-11-18T21:18:13.001Z,-0.16
2022-11-18T21:20:54.904Z,-0.46
2022-11-18T21:23:24.326Z,-0.39
2022-11-18T21:25:53.957Z,-1.07
2022-11-18T21:28:23.359Z,-1.39
2022-11-18T21:30:52.857Z,-1.47
2022-11-18T21:33:25.323Z,-1.56
2022-11-18T21:35:54.769Z,-1.43
2022-11-18T21:38:24.406Z,-1.63
2022-11-18T21:40:53.849Z,-1.59
2022-11-18T21:43:50.263Z,-1.48
2022-11-18T21:46:13.977Z,-1.64
2022-11-18T21:48:47.143Z,-1.24
2022-11-18T21:51:18.691Z,-1.12
2022-11-18T21:53:48.545Z,-1.33
2022-11-18T21:56:20.408Z,-1.68
2022-11-18T21:58:49.887Z,-1.76
2022-11-18T22:01:21.093Z,-1.83
2022-11-18T22:03:55.677Z,-1.89
2022-11-18T22:06:27.117Z,-1.88
2022-11-18T22:08:56.493Z,-1.82
2022-11-18T22:11:26.142Z,-1.83
2022-11-18T22:13:55.976Z,-1.89
2022-11-18T22:16:27.141Z,-1.90
2022-11-18T22:19:06.655Z,-1.90
2022-11-18T22:21:37.493Z,-1.94
2022-11-18T22:24:07.209Z,-2.04
2022-11-18T22:26:36.647Z,-2.05
2022-11-18T22:29:06.225Z,-1.99
2022-11-18T22:31:35.665Z,-2.00
2022-11-18T22:34:08.000Z,-2.08
2022-11-18T22:36:37.634Z,-2.06
2022-11-18T22:39:07.175Z,-2.08
2022-11-18T22:41:49.306Z,-2.01
2022-11-18T22:44:19.502Z,-2.06
2022-11-18T22:46:48.868Z,-2.18
2022-11-18T22:49:21.314Z,-2.20
2022-11-18T22:51:51.085Z,-2.20
2022-11-18T22:54:38.316Z,-2.31
2022-11-18T22:57:08.754Z,-2.35
2022-11-18T22:59:38.246Z,-2.40
2022-11-18T23:02:08.167Z,-2.46
2022-11-18T23:04:40.158Z,-2.46
2022-11-18T23:07:09.753Z,-2.38
2022-11-18T23:09:39.158Z,-2.45
2022-11-18T23:12:21.252Z,-2.46
2022-11-18T23:14:50.751Z,-2.36
2022-11-18T23:17:20.798Z,-2.46
2022-11-18T23:19:52.748Z,-2.54
2022-11-18T23:22:22.164Z,-2.49
2022-11-18T23:24:51.559Z,-2.42
2022-11-18T23:27:21.025Z,-2.47
2022-11-18T23:29:50.454Z,-2.41
2022-11-18T23:32:19.928Z,-2.39
2022-11-18T23:34:52.321Z,-2.37
2022-11-18T23:37:21.737Z,-2.34
2022-11-18T23:39:52.664Z,-2.40
2022-11-18T23:42:22.063Z,-2.47
2022-11-18T23:44:52.840Z,-2.53
2022-11-18T23:47:22.322Z,-2.59
2022-11-18T23:49:54.315Z,-2.58
2022-11-18T23:52:23.766Z,-2.58
2022-11-18T23:54:54.565Z,-2.54
2022-11-18T23:57:24.032Z,-2.56
2022-11-18T23:59:53.389Z,-2.60
